Richmond South's Hourly Summary for Sunday, July 8, 2018
Hour Temp
(f)
RH
(%)
Solar Rad.
(MJ/m2)
Rainfall
(in)
Wind
(mph)
7/8/2018 12:00 AM 77 92 0 0 0
7/8/2018 1:00 AM 76 93 0 0 0
7/8/2018 2:00 AM 75 94 0 0 0
7/8/2018 3:00 AM 74 95 0 0 0.01
7/8/2018 4:00 AM 74 95 0 0 0.05
7/8/2018 5:00 AM 73 95 0 0 0
7/8/2018 6:00 AM 73 96 0 0 0
7/8/2018 7:00 AM 74 96 0.02 0 0
7/8/2018 8:00 AM 75 94 0.33 0 0.61
7/8/2018 9:00 AM 80 78 0.76 0 2.51
7/8/2018 10:00 AM 82 75 0.67 0 0.64
7/8/2018 11:00 AM 80 77 0.78 0.03 0.74
7/8/2018 12:00 PM 81 75 1.26 0 2.11
7/8/2018 1:00 PM 80 79 0.92 0.01 4.69
7/8/2018 2:00 PM 78 81 0.53 0 3.73
7/8/2018 3:00 PM 77 85 0.6 0 4.6
7/8/2018 4:00 PM 78 89 0.76 0 3.34
7/8/2018 5:00 PM 80 81 0.9 0 3.39
7/8/2018 6:00 PM 80 80 0.79 0 3.69
7/8/2018 7:00 PM 79 82 0.57 0 3.75
7/8/2018 8:00 PM 78 82 0.17 0 3.18
7/8/2018 9:00 PM 77 87 0.02 0 1.62
7/8/2018 10:00 PM 76 92 0 0 1.14
7/8/2018 11:00 PM 76 92 0 0 2.95
Data Summary 77 86 9.08 0.04 1.78